createdAt,value
2023-09-12T00:01:22.357Z,22.65
2023-09-12T00:03:48.841Z,22.67
2023-09-12T00:06:15.337Z,22.69
2023-09-12T00:08:41.989Z,22.67
2023-09-12T00:11:10.688Z,22.68
2023-09-12T00:13:37.084Z,22.68
2023-09-12T00:16:03.582Z,22.69
2023-09-12T00:18:29.996Z,22.70
2023-09-12T00:20:56.434Z,22.70
2023-09-12T00:23:23.556Z,22.67
2023-09-12T00:25:53.048Z,22.66
2023-09-12T00:28:20.391Z,22.66
2023-09-12T00:30:46.758Z,22.59
2023-09-12T00:33:13.447Z,22.56
2023-09-12T00:35:39.907Z,22.51
2023-09-12T00:38:06.348Z,22.48
2023-09-12T00:40:32.704Z,22.44
2023-09-12T00:42:59.923Z,22.43
2023-09-12T00:45:26.695Z,22.44
2023-09-12T00:47:54.332Z,22.40
2023-09-12T00:50:24.233Z,22.35
2023-09-12T00:52:50.654Z,22.35
2023-09-12T00:55:17.644Z,22.33
2023-09-12T00:57:44.559Z,22.30
2023-09-12T01:00:13.547Z,22.25
2023-09-12T01:02:42.025Z,22.23
2023-09-12T01:05:09.780Z,22.20
2023-09-12T01:07:40.054Z,22.20
2023-09-12T01:10:07.825Z,22.15
2023-09-12T01:12:34.508Z,22.13
2023-09-12T01:15:01.131Z,22.10
2023-09-12T01:17:28.628Z,22.08
2023-09-12T01:19:55.164Z,22.09
2023-09-12T01:22:53.798Z,22.08
2023-09-12T01:25:38.669Z,22.04
2023-09-12T01:28:08.762Z,21.94
2023-09-12T01:30:36.501Z,21.89
2023-09-12T01:33:03.814Z,21.90
2023-09-12T01:35:30.268Z,21.85
2023-09-12T01:37:56.772Z,21.82
2023-09-12T01:40:34.403Z,21.79
2023-09-12T01:43:01.644Z,21.78
2023-09-12T01:45:28.463Z,21.77
2023-09-12T01:47:55.526Z,21.77
2023-09-12T01:50:23.076Z,21.72
2023-09-12T01:52:50.110Z,21.67
2023-09-12T01:55:17.073Z,21.61
2023-09-12T01:57:43.724Z,21.58
2023-09-12T02:00:10.847Z,21.55
2023-09-12T02:02:37.231Z,21.55
2023-09-12T02:05:21.517Z,21.56
2023-09-12T02:07:48.397Z,21.54
2023-09-12T02:10:15.377Z,21.51
2023-09-12T02:12:42.242Z,21.46
2023-09-12T02:15:09.457Z,21.48
2023-09-12T02:17:36.018Z,21.46
2023-09-12T02:20:02.483Z,21.44
2023-09-12T02:22:28.913Z,21.43
2023-09-12T02:24:55.306Z,21.42
2023-09-12T02:27:21.779Z,21.42
2023-09-12T02:29:48.188Z,21.39
2023-09-12T02:32:14.645Z,21.38
2023-09-12T02:34:41.025Z,21.36
2023-09-12T02:37:07.470Z,21.35
2023-09-12T02:39:33.896Z,21.36
2023-09-12T02:42:00.295Z,21.34
2023-09-12T02:44:26.694Z,21.33
2023-09-12T02:46:53.091Z,21.28
2023-09-12T02:49:19.540Z,21.24
2023-09-12T02:51:47.020Z,21.21
2023-09-12T02:54:13.561Z,21.14
2023-09-12T02:56:39.967Z,21.14
2023-09-12T02:59:06.379Z,21.09
2023-09-12T03:01:32.814Z,21.07
2023-09-12T03:03:59.441Z,21.07
2023-09-12T03:06:25.914Z,21.11
2023-09-12T03:08:52.261Z,21.12
2023-09-12T03:11:18.677Z,21.13
2023-09-12T03:13:45.117Z,21.11
2023-09-12T03:16:12.638Z,21.09
2023-09-12T03:18:39.146Z,21.11
2023-09-12T03:21:06.297Z,21.12
2023-09-12T03:23:33.086Z,21.16
2023-09-12T03:26:04.103Z,21.17
2023-09-12T03:28:30.793Z,21.18
2023-09-12T03:31:17.589Z,21.23
2023-09-12T03:33:44.652Z,21.21
2023-09-12T03:36:11.051Z,21.22
2023-09-12T03:38:37.565Z,21.22
2023-09-12T03:41:03.969Z,21.20
2023-09-12T03:43:31.128Z,21.14
2023-09-12T03:45:57.660Z,21.09
2023-09-12T03:48:24.192Z,21.05
2023-09-12T03:50:50.618Z,21.03
2023-09-12T03:53:17.016Z,21.02
2023-09-12T03:55:43.689Z,21.03
2023-09-12T03:58:10.133Z,21.01
2023-09-12T04:00:36.647Z,21.00
2023-09-12T04:03:03.380Z,20.98
2023-09-12T04:05:29.867Z,20.97
2023-09-12T04:07:56.251Z,20.96
2023-09-12T04:10:22.596Z,20.93
2023-09-12T04:12:49.157Z,20.92
2023-09-12T04:15:15.819Z,20.90
2023-09-12T04:17:42.259Z,20.84
2023-09-12T04:20:08.785Z,20.83
2023-09-12T04:22:35.192Z,20.79
2023-09-12T04:25:01.634Z,20.78
2023-09-12T04:27:28.034Z,20.79
2023-09-12T04:29:54.389Z,20.76
2023-09-12T04:32:20.736Z,20.71
2023-09-12T04:34:47.085Z,20.65
2023-09-12T04:37:13.509Z,20.61
2023-09-12T04:39:39.965Z,20.58
2023-09-12T04:42:06.465Z,20.55
2023-09-12T04:44:36.941Z,20.54
2023-09-12T04:47:03.417Z,20.55
2023-09-12T04:49:29.948Z,20.55
2023-09-12T04:51:56.361Z,20.55
2023-09-12T04:54:22.731Z,20.55
2023-09-12T04:56:49.108Z,20.51
2023-09-12T04:59:15.524Z,20.52
2023-09-12T05:01:44.692Z,20.52
2023-09-12T05:04:11.158Z,20.54
2023-09-12T05:06:37.628Z,20.60
2023-09-12T05:09:04.157Z,20.58
2023-09-12T05:11:30.496Z,20.60
2023-09-12T05:13:56.851Z,20.62
2023-09-12T05:16:23.253Z,20.64
2023-09-12T05:18:49.730Z,20.64
2023-09-12T05:21:16.688Z,20.66
2023-09-12T05:23:43.187Z,20.69
2023-09-12T05:26:09.546Z,20.68
2023-09-12T05:28:35.920Z,20.67
2023-09-12T05:31:02.457Z,20.66
2023-09-12T05:33:30.693Z,20.67
2023-09-12T05:35:59.119Z,20.66
2023-09-12T05:38:25.460Z,20.68
2023-09-12T05:40:51.839Z,20.70
2023-09-12T05:43:18.281Z,20.73
2023-09-12T05:45:44.982Z,20.77
2023-09-12T05:48:14.291Z,20.81
2023-09-12T05:50:40.767Z,20.81
2023-09-12T05:53:07.129Z,20.86
2023-09-12T05:55:33.539Z,20.90
2023-09-12T05:57:59.937Z,20.93
2023-09-12T06:00:26.353Z,20.96
2023-09-12T06:02:52.918Z,20.95
2023-09-12T06:05:19.387Z,20.89
2023-09-12T06:07:46.666Z,20.91
2023-09-12T06:10:13.070Z,20.92
2023-09-12T06:12:39.501Z,20.93
2023-09-12T06:15:06.581Z,20.93
2023-09-12T06:17:33.124Z,20.95
2023-09-12T06:19:59.556Z,20.95
2023-09-12T06:22:26.002Z,20.96
2023-09-12T06:24:52.761Z,20.97
2023-09-12T06:27:19.321Z,20.98
2023-09-12T06:29:46.751Z,21.01
2023-09-12T06:32:13.122Z,21.04
2023-09-12T06:34:39.577Z,21.09
2023-09-12T06:37:05.945Z,21.20
2023-09-12T06:39:32.533Z,21.31
2023-09-12T06:41:59.222Z,21.42
2023-09-12T06:44:25.640Z,21.46
2023-09-12T06:46:52.153Z,21.53
2023-09-12T06:49:18.633Z,21.58
2023-09-12T06:51:45.088Z,21.59
2023-09-12T06:54:11.594Z,21.54
2023-09-12T06:56:38.004Z,21.53
2023-09-12T06:59:08.037Z,21.46
2023-09-12T07:01:34.655Z,21.44
2023-09-12T07:04:01.205Z,21.43
2023-09-12T07:06:27.866Z,21.46
2023-09-12T07:08:54.434Z,21.43
2023-09-12T07:11:20.812Z,21.46
2023-09-12T07:13:47.597Z,21.51
2023-09-12T07:16:14.270Z,21.49
2023-09-12T07:18:40.897Z,21.49
2023-09-12T07:21:08.825Z,21.55
2023-09-12T07:23:35.265Z,21.58
2023-09-12T07:26:01.697Z,21.67
2023-09-12T07:28:28.750Z,21.79
2023-09-12T07:30:56.040Z,21.90
2023-09-12T07:33:23.106Z,21.98
2023-09-12T07:35:52.749Z,22.14
2023-09-12T07:38:19.644Z,22.34
2023-09-12T07:40:46.092Z,22.34
2023-09-12T07:43:12.459Z,22.53
2023-09-12T07:45:39.152Z,22.66
2023-09-12T07:48:10.681Z,22.66
2023-09-12T07:50:37.203Z,22.80
2023-09-12T07:53:03.809Z,23.14
2023-09-12T07:55:30.255Z,23.19
2023-09-12T07:57:56.776Z,23.26
2023-09-12T08:00:23.208Z,23.24
2023-09-12T08:02:49.633Z,23.28
2023-09-12T08:05:16.127Z,23.27
2023-09-12T08:07:42.521Z,23.31
2023-09-12T08:10:09.053Z,23.37
2023-09-12T08:12:35.421Z,23.43
2023-09-12T08:15:01.913Z,23.51
2023-09-12T08:17:28.356Z,23.58
2023-09-12T08:19:54.772Z,23.62
2023-09-12T08:22:21.134Z,23.75
2023-09-12T08:24:47.527Z,24.02
2023-09-12T08:27:13.982Z,24.25
2023-09-12T08:29:40.392Z,24.44
2023-09-12T08:32:06.976Z,24.65
2023-09-12T08:34:33.449Z,24.94
2023-09-12T08:36:59.846Z,25.28
2023-09-12T08:39:28.706Z,25.53
2023-09-12T08:41:55.360Z,25.83
2023-09-12T08:44:22.531Z,25.94
2023-09-12T08:46:49.005Z,25.90
2023-09-12T08:49:16.348Z,25.72
2023-09-12T08:51:43.006Z,25.56
2023-09-12T08:54:09.404Z,25.65
2023-09-12T08:56:40.257Z,26.06
2023-09-12T08:59:06.746Z,26.48
2023-09-12T09:01:35.006Z,26.72
2023-09-12T09:04:03.682Z,26.95
2023-09-12T09:06:32.184Z,27.09
2023-09-12T09:09:00.755Z,27.09
2023-09-12T09:11:27.121Z,27.30
2023-09-12T09:13:53.505Z,27.49
2023-09-12T09:16:20.623Z,27.67
2023-09-12T09:18:53.794Z,27.75
2023-09-12T09:21:21.887Z,28.03
2023-09-12T09:23:48.282Z,28.15
2023-09-12T09:26:14.775Z,28.26
2023-09-12T09:28:41.210Z,28.49
2023-09-12T09:31:14.653Z,28.51
2023-09-12T09:33:41.842Z,28.40
2023-09-12T09:36:09.075Z,28.70
2023-09-12T09:38:36.295Z,28.93
2023-09-12T09:41:07.201Z,29.15
2023-09-12T09:43:33.902Z,29.34
2023-09-12T09:46:00.471Z,29.57
2023-09-12T09:48:27.817Z,29.89
2023-09-12T09:51:00.708Z,30.11
2023-09-12T09:53:31.485Z,30.17
2023-09-12T09:56:15.545Z,29.89
2023-09-12T09:59:07.910Z,30.19
2023-09-12T10:01:36.530Z,30.31
2023-09-12T10:04:04.444Z,30.53
2023-09-12T10:06:33.798Z,30.54
2023-09-12T10:09:01.517Z,30.75
2023-09-12T10:11:32.673Z,30.93
2023-09-12T10:14:03.538Z,31.09
2023-09-12T10:16:39.865Z,31.46
2023-09-12T10:19:17.885Z,31.69
2023-09-12T10:22:02.008Z,31.36
2023-09-12T10:24:29.444Z,31.16
2023-09-12T10:26:57.846Z,31.12
2023-09-12T10:29:24.243Z,31.37
2023-09-12T10:31:50.927Z,31.66
2023-09-12T10:34:19.137Z,31.84
2023-09-12T10:36:47.038Z,31.79
2023-09-12T10:39:15.770Z,31.40
2023-09-12T10:41:54.608Z,31.48
2023-09-12T10:44:21.524Z,31.30
2023-09-12T10:46:48.729Z,31.24
2023-09-12T10:49:16.428Z,31.31
2023-09-12T10:51:44.653Z,31.14
2023-09-12T10:54:16.375Z,31.12
2023-09-12T10:56:43.268Z,30.93
2023-09-12T10:59:10.379Z,31.11
2023-09-12T11:01:38.979Z,31.33
2023-09-12T11:04:20.775Z,31.69
2023-09-12T11:06:51.075Z,31.95
2023-09-12T11:09:25.317Z,31.98
2023-09-12T11:11:54.482Z,32.20
2023-09-12T11:14:21.089Z,32.37
2023-09-12T11:17:23.526Z,32.61
2023-09-12T11:19:53.575Z,32.46
2023-09-12T11:22:24.739Z,32.17
2023-09-12T11:24:51.367Z,31.96
2023-09-12T11:27:18.015Z,31.66
2023-09-12T11:29:44.601Z,31.38
2023-09-12T11:32:11.103Z,31.12
2023-09-12T11:34:39.450Z,31.26
2023-09-12T11:37:05.956Z,31.28
2023-09-12T11:39:34.247Z,31.55
2023-09-12T11:42:02.829Z,31.94
2023-09-12T11:44:29.691Z,32.36
2023-09-12T11:46:56.227Z,32.44
2023-09-12T11:49:22.721Z,32.78
2023-09-12T11:51:54.449Z,32.87
2023-09-12T11:54:26.746Z,32.89
2023-09-12T11:56:54.378Z,33.13
2023-09-12T11:59:20.840Z,33.05
2023-09-12T12:01:47.399Z,33.17
2023-09-12T12:04:14.321Z,33.15
2023-09-12T12:06:41.635Z,33.07
2023-09-12T12:09:08.113Z,32.99
2023-09-12T12:11:34.522Z,33.11
2023-09-12T12:14:14.092Z,32.93
2023-09-12T12:16:40.616Z,32.76
2023-09-12T12:19:07.167Z,32.80
2023-09-12T12:21:34.716Z,32.62
2023-09-12T12:24:03.183Z,32.31
2023-09-12T12:26:30.798Z,32.07
2023-09-12T12:28:57.253Z,32.20
2023-09-12T12:31:26.927Z,32.26
2023-09-12T12:34:54.983Z,32.18
2023-09-12T12:36:54.682Z,32.14
2023-09-12T12:39:23.773Z,32.18
2023-09-12T12:41:53.391Z,32.05
2023-09-12T12:44:20.287Z,31.80
2023-09-12T12:46:54.193Z,32.02
2023-09-12T12:49:21.594Z,32.47
2023-09-12T12:51:48.513Z,32.84
2023-09-12T12:54:15.744Z,32.84
2023-09-12T12:56:44.644Z,32.89
2023-09-12T12:59:11.476Z,32.67
2023-09-12T13:01:39.102Z,32.33
2023-09-12T13:04:09.332Z,32.24
2023-09-12T13:06:36.587Z,32.48
2023-09-12T13:09:05.733Z,32.28
2023-09-12T13:11:33.275Z,32.13
2023-09-12T13:13:59.729Z,32.11
2023-09-12T13:16:26.213Z,32.31
2023-09-12T13:18:52.753Z,32.34
2023-09-12T13:21:19.109Z,32.32
2023-09-12T13:23:45.707Z,31.99
2023-09-12T13:26:12.421Z,31.78
2023-09-12T13:28:38.849Z,32.02
2023-09-12T13:31:05.273Z,32.33
2023-09-12T13:33:31.761Z,32.52
2023-09-12T13:35:58.221Z,32.67
2023-09-12T13:38:24.657Z,32.27
2023-09-12T13:40:51.098Z,31.82
2023-09-12T13:43:17.572Z,31.24
2023-09-12T13:45:44.110Z,30.91
2023-09-12T13:48:10.499Z,30.78
2023-09-12T13:50:37.109Z,30.56
2023-09-12T13:53:04.169Z,30.41
2023-09-12T13:55:54.120Z,30.18
2023-09-12T13:58:17.307Z,29.93
2023-09-12T14:00:43.787Z,29.79
2023-09-12T14:03:10.358Z,29.79
2023-09-12T14:05:37.257Z,29.69
2023-09-12T14:08:07.578Z,29.37
2023-09-12T14:10:37.882Z,29.45
2023-09-12T14:13:16.628Z,29.42
2023-09-12T14:15:46.794Z,29.05
2023-09-12T14:18:13.942Z,29.01
2023-09-12T14:20:40.585Z,29.07
2023-09-12T14:23:07.168Z,28.97
2023-09-12T14:25:33.751Z,28.87
2023-09-12T14:28:00.275Z,28.93
2023-09-12T14:30:26.796Z,28.71
2023-09-12T14:32:53.273Z,28.76
2023-09-12T14:35:19.689Z,28.82
2023-09-12T14:37:46.093Z,28.83
2023-09-12T14:40:13.568Z,28.85
2023-09-12T14:42:39.959Z,28.82
2023-09-12T14:45:07.477Z,28.66
2023-09-12T14:47:34.056Z,28.67
2023-09-12T14:50:00.922Z,28.38
2023-09-12T14:52:30.012Z,28.43
2023-09-12T14:54:57.383Z,28.46
2023-09-12T14:57:23.925Z,28.59
2023-09-12T14:59:51.701Z,28.51
2023-09-12T15:02:18.548Z,28.53
2023-09-12T15:04:45.058Z,28.48
2023-09-12T15:07:11.519Z,28.51
2023-09-12T15:09:37.949Z,28.59
2023-09-12T15:12:04.633Z,28.61
2023-09-12T15:14:30.969Z,28.59
2023-09-12T15:16:57.423Z,28.58
2023-09-12T15:19:23.860Z,28.37
2023-09-12T15:21:50.329Z,28.38
2023-09-12T15:24:16.710Z,28.31
2023-09-12T15:26:43.182Z,28.29
2023-09-12T15:29:09.576Z,28.29
2023-09-12T15:31:35.987Z,28.21
2023-09-12T15:34:02.484Z,28.16
2023-09-12T15:36:29.212Z,28.16
2023-09-12T15:38:55.667Z,28.02
2023-09-12T15:41:25.220Z,28.02
2023-09-12T15:44:05.107Z,28.00
2023-09-12T15:46:38.024Z,27.98
2023-09-12T15:49:04.914Z,27.93
2023-09-12T15:51:31.828Z,27.88
2023-09-12T15:53:58.198Z,27.78
2023-09-12T15:56:24.565Z,27.64
2023-09-12T15:58:50.942Z,27.53
2023-09-12T16:01:17.381Z,27.40
2023-09-12T16:03:44.120Z,27.40
2023-09-12T16:06:10.827Z,27.39
2023-09-12T16:08:37.195Z,27.27
2023-09-12T16:11:03.675Z,27.28
2023-09-12T16:13:30.079Z,27.26
2023-09-12T16:15:56.519Z,27.28
2023-09-12T16:18:22.922Z,27.23
2023-09-12T16:20:49.276Z,27.09
2023-09-12T16:23:15.795Z,27.01
2023-09-12T16:25:42.246Z,26.95
2023-09-12T16:28:08.684Z,26.83
2023-09-12T16:30:35.149Z,26.67
2023-09-12T16:33:01.676Z,26.55
2023-09-12T16:35:28.065Z,26.50
2023-09-12T16:37:54.442Z,26.49
2023-09-12T16:40:20.809Z,26.44
2023-09-12T16:42:47.287Z,26.36
2023-09-12T16:45:13.826Z,26.27
2023-09-12T16:47:40.279Z,26.22
2023-09-12T16:50:07.156Z,26.13
2023-09-12T16:52:33.550Z,26.02
2023-09-12T16:55:00.043Z,25.97
2023-09-12T16:57:26.522Z,25.92
2023-09-12T16:59:52.910Z,25.85
2023-09-12T17:02:19.267Z,25.74
2023-09-12T17:04:45.682Z,25.69
2023-09-12T17:07:14.007Z,25.63
2023-09-12T17:09:41.330Z,25.56
2023-09-12T17:12:08.418Z,25.54
2023-09-12T17:14:34.961Z,25.50
2023-09-12T17:17:02.119Z,25.49
2023-09-12T17:19:28.864Z,25.43
2023-09-12T17:21:55.405Z,25.38
2023-09-12T17:24:21.843Z,25.27
2023-09-12T17:26:48.192Z,25.21
2023-09-12T17:29:14.607Z,25.12
2023-09-12T17:31:41.059Z,25.08
2023-09-12T17:34:07.474Z,25.04
2023-09-12T17:36:34.137Z,25.03
2023-09-12T17:39:00.666Z,24.99
2023-09-12T17:41:27.071Z,24.93
2023-09-12T17:43:53.419Z,24.89
2023-09-12T17:46:19.897Z,24.88
2023-09-12T17:48:46.329Z,24.84
2023-09-12T17:51:12.672Z,24.78
2023-09-12T17:53:39.069Z,24.74
2023-09-12T17:56:05.557Z,24.70
2023-09-12T17:58:31.961Z,24.67
2023-09-12T18:01:00.160Z,24.65
2023-09-12T18:03:30.010Z,24.63
2023-09-12T18:05:58.468Z,24.62
2023-09-12T18:08:25.095Z,24.60
2023-09-12T18:10:51.498Z,24.56
2023-09-12T18:13:17.812Z,24.52
2023-09-12T18:15:44.253Z,24.49
2023-09-12T18:18:10.727Z,24.43
2023-09-12T18:20:37.073Z,24.41
2023-09-12T18:23:03.582Z,24.42
2023-09-12T18:25:29.978Z,24.39
2023-09-12T18:27:56.479Z,24.38
2023-09-12T18:30:22.925Z,24.36
2023-09-12T18:32:49.558Z,24.35
2023-09-12T18:35:16.000Z,24.32
2023-09-12T18:37:42.341Z,24.30
2023-09-12T18:40:09.224Z,24.28
2023-09-12T18:42:35.766Z,24.24
2023-09-12T18:45:02.179Z,24.20
2023-09-12T18:47:28.693Z,24.21
2023-09-12T18:49:55.635Z,24.20
2023-09-12T18:52:22.024Z,24.18
2023-09-12T18:54:48.532Z,24.17
2023-09-12T18:57:15.000Z,24.15
2023-09-12T18:59:41.885Z,24.13
2023-09-12T19:02:08.398Z,24.11
2023-09-12T19:04:35.103Z,24.08
2023-09-12T19:07:01.742Z,24.05
2023-09-12T19:09:28.079Z,24.02
2023-09-12T19:11:56.503Z,23.99
2023-09-12T19:14:22.904Z,23.96
2023-09-12T19:16:54.105Z,23.97
2023-09-12T19:19:20.627Z,23.94
2023-09-12T19:21:48.114Z,23.90
2023-09-12T19:24:14.517Z,23.87
2023-09-12T19:26:41.879Z,23.86
2023-09-12T19:29:08.484Z,23.83
2023-09-12T19:31:34.851Z,23.81
2023-09-12T19:34:01.397Z,23.78
2023-09-12T19:36:27.798Z,23.79
2023-09-12T19:38:54.173Z,23.76
2023-09-12T19:41:20.574Z,23.79
2023-09-12T19:43:46.941Z,23.78
2023-09-12T19:46:13.440Z,23.78
2023-09-12T19:48:39.993Z,23.73
2023-09-12T19:51:06.397Z,23.75
2023-09-12T19:53:32.775Z,23.73
2023-09-12T19:55:59.400Z,23.73
2023-09-12T19:58:25.786Z,23.71
2023-09-12T20:00:52.192Z,23.70
2023-09-12T20:03:18.899Z,23.64
2023-09-12T20:05:46.336Z,23.65
2023-09-12T20:08:13.000Z,23.62
2023-09-12T20:10:39.359Z,23.63
2023-09-12T20:13:05.814Z,23.54
2023-09-12T20:15:35.784Z,23.57
2023-09-12T20:18:09.970Z,23.43
2023-09-12T20:20:37.272Z,23.48
2023-09-12T20:23:04.079Z,23.47
2023-09-12T20:25:31.573Z,23.49
2023-09-12T20:27:58.066Z,23.49
2023-09-12T20:30:24.534Z,23.52
2023-09-12T20:32:59.769Z,23.45
2023-09-12T20:35:28.576Z,23.45
2023-09-12T20:37:56.163Z,23.44
2023-09-12T20:40:22.589Z,23.42
2023-09-12T20:42:48.962Z,23.35
2023-09-12T20:45:15.331Z,23.34
2023-09-12T20:47:41.770Z,23.32
2023-09-12T20:50:08.478Z,23.12
2023-09-12T20:52:34.902Z,23.15
2023-09-12T20:55:01.413Z,23.17
2023-09-12T20:57:27.856Z,23.17
2023-09-12T20:59:55.210Z,23.21
2023-09-12T21:02:23.141Z,23.20
2023-09-12T21:04:49.544Z,23.20
2023-09-12T21:07:17.547Z,23.20
2023-09-12T21:09:44.243Z,23.19
2023-09-12T21:12:10.700Z,23.15
2023-09-12T21:14:37.102Z,23.12
2023-09-12T21:19:30.089Z,23.09
2023-09-12T21:21:56.449Z,23.05
2023-09-12T21:24:22.934Z,23.01
2023-09-12T21:26:49.290Z,22.91
2023-09-12T21:29:17.994Z,22.89
2023-09-12T21:31:44.421Z,22.90
2023-09-12T21:34:10.862Z,22.89
2023-09-12T21:36:37.414Z,22.89
2023-09-12T21:39:03.957Z,22.93
2023-09-12T21:41:30.320Z,22.94
2023-09-12T21:43:56.653Z,22.94
2023-09-12T21:46:25.453Z,22.95
2023-09-12T21:48:51.912Z,22.96
2023-09-12T21:51:18.424Z,22.96
2023-09-12T21:53:44.984Z,23.00
2023-09-12T21:56:11.602Z,23.00
2023-09-12T21:58:38.054Z,22.99
2023-09-12T22:01:04.531Z,22.97
2023-09-12T22:03:33.424Z,22.98
2023-09-12T22:05:59.848Z,22.97
2023-09-12T22:08:26.225Z,22.95
2023-09-12T22:10:52.631Z,22.87
2023-09-12T22:13:18.972Z,22.87
2023-09-12T22:15:45.518Z,22.88
2023-09-12T22:18:12.015Z,22.86
2023-09-12T22:20:39.144Z,22.86
2023-09-12T22:23:05.571Z,22.81
2023-09-12T22:25:31.972Z,22.80
2023-09-12T22:27:58.421Z,22.76
2023-09-12T22:30:24.974Z,22.77
2023-09-12T22:32:51.302Z,22.80
2023-09-12T22:35:17.711Z,22.83
2023-09-12T22:37:44.080Z,22.78
2023-09-12T22:40:11.167Z,22.80
2023-09-12T22:42:38.023Z,22.82
2023-09-12T22:45:09.790Z,22.79
2023-09-12T22:47:36.200Z,22.80
2023-09-12T22:50:05.122Z,22.77
2023-09-12T22:52:31.510Z,22.76
2023-09-12T22:54:57.997Z,22.74
2023-09-12T22:57:24.377Z,22.72
2023-09-12T22:59:50.867Z,22.74
2023-09-12T23:02:17.244Z,22.75
2023-09-12T23:04:43.645Z,22.77
2023-09-12T23:07:10.044Z,22.78
2023-09-12T23:09:36.507Z,22.75
2023-09-12T23:12:03.088Z,22.75
2023-09-12T23:14:29.466Z,22.76
2023-09-12T23:16:55.860Z,22.74
2023-09-12T23:19:22.271Z,22.72
2023-09-12T23:21:48.690Z,22.73
2023-09-12T23:24:15.035Z,22.72
2023-09-12T23:26:41.445Z,22.73
2023-09-12T23:29:07.800Z,22.71
2023-09-12T23:31:34.249Z,22.68
2023-09-12T23:34:00.796Z,22.63
2023-09-12T23:36:27.385Z,22.61
2023-09-12T23:38:53.741Z,22.55
2023-09-12T23:41:20.138Z,22.55
2023-09-12T23:43:46.781Z,22.50
2023-09-12T23:46:13.329Z,22.46
2023-09-12T23:48:39.817Z,22.40
2023-09-12T23:51:06.257Z,22.39
2023-09-12T23:53:32.642Z,22.38
2023-09-12T23:56:00.693Z,22.39
2023-09-12T23:58:27.002Z,22.42
